MA65 weather

Island Air Service Seaplane Base
Rochester, Massachusetts, United States

Public forecast

Using degrees Fahrenheit for public forecast. Weather courtesy of forecast.io.

METAR (pilot weather report)

Closest report is New Bedford Regional Airport, 6.9 nm (12.7 km) SSW. Retrieved 2019/09/15 08:53 UTC (35 minutes ago):

KEWB 150853Z AUTO 23004KT 10SM OVC006 20/19 A3012 RMK AO2 SLP198 60000 T02000189 56008

TAF (pilot weather forecast)

Forecast is more than 12 hours old.

Closest forecast is Cape Cod Coast Guard Air Station, 17.2 nm (31.8 km) ESE. Retrieved 2019/09/14 00:33 UTC (1 day ago):

TAF KFMH 142330Z 1500/1524 20008KT P6SM VCSH BKN060 FM150700 22007KT P6SM VCSH OVC025 FM151000 23007KT P6SM VCSH OVC008 FM151400 26006KT P6SM OVC008 FM151600 26006KT 5SM BR BKN020 FM151900 23007KT 6SM BR FEW020